createdAt,value
2019-03-24T00:00:11.433Z,51.50
2019-03-24T00:04:20.747Z,50.10
2019-03-24T00:08:30.090Z,50.27
2019-03-24T00:12:39.474Z,48.70
2019-03-24T00:16:49.083Z,51.37
2019-03-24T00:20:58.679Z,53.23
2019-03-24T00:25:08.497Z,48.50
2019-03-24T00:29:18.138Z,46.93
2019-03-24T00:33:27.799Z,46.87
2019-03-24T00:37:37.491Z,47.00
2019-03-24T00:41:46.873Z,45.30
2019-03-24T00:45:56.491Z,47.80
2019-03-24T00:50:06.281Z,45.07
2019-03-24T00:54:15.596Z,45.00
2019-03-24T00:58:24.905Z,44.97
2019-03-24T01:02:34.303Z,44.70
2019-03-24T01:06:43.769Z,45.20
2019-03-24T01:10:53.475Z,46.93
2019-03-24T01:15:03.239Z,43.67
2019-03-24T01:19:12.558Z,45.23
2019-03-24T01:23:21.896Z,42.23
2019-03-24T01:27:31.598Z,43.57
2019-03-24T01:31:40.923Z,41.93
2019-03-24T01:35:50.239Z,46.67
2019-03-24T01:39:59.615Z,42.43
2019-03-24T01:44:09.274Z,45.43
2019-03-24T01:48:18.873Z,47.50
2019-03-24T01:52:28.181Z,46.90
2019-03-24T01:56:37.507Z,44.47
2019-03-24T02:00:46.887Z,43.83
2019-03-24T02:04:56.283Z,46.60
2019-03-24T02:09:07.858Z,45.80
2019-03-24T02:13:17.182Z,47.30
2019-03-24T02:17:26.570Z,47.47
2019-03-24T02:21:35.945Z,49.00
2019-03-24T02:25:45.326Z,46.20
2019-03-24T02:29:54.958Z,48.90
2019-03-24T02:34:04.279Z,49.77
2019-03-24T02:38:13.571Z,50.00
2019-03-24T02:42:23.670Z,46.10
2019-03-24T02:46:32.962Z,45.50
2019-03-24T02:50:42.270Z,46.53
2019-03-24T02:54:51.909Z,48.83
2019-03-24T02:59:01.218Z,46.60
2019-03-24T03:03:10.531Z,43.50
2019-03-24T03:07:19.902Z,45.77
2019-03-24T03:11:29.207Z,44.07
2019-03-24T03:15:38.818Z,44.57
2019-03-24T03:19:48.191Z,44.03
2019-03-24T03:23:57.882Z,48.17
2019-03-24T03:28:07.189Z,48.07
2019-03-24T03:32:16.490Z,43.93
2019-03-24T03:36:25.822Z,46.27
2019-03-24T03:40:35.119Z,44.37
2019-03-24T03:44:44.495Z,45.50
2019-03-24T03:48:53.797Z,44.40
2019-03-24T03:53:03.209Z,43.30
2019-03-24T03:57:12.774Z,45.20
2019-03-24T04:01:22.073Z,38.10
2019-03-24T04:05:31.462Z,39.87
2019-03-24T04:09:40.758Z,38.27
2019-03-24T04:13:50.356Z,39.40
2019-03-24T04:17:59.659Z,36.47
2019-03-24T04:22:09.354Z,39.30
2019-03-24T04:26:19.049Z,35.57
2019-03-24T04:30:28.364Z,36.70
2019-03-24T04:34:37.666Z,34.53
2019-03-24T04:38:47.281Z,32.87
2019-03-24T04:42:56.723Z,34.00
2019-03-24T04:47:16.164Z,33.73
2019-03-24T04:51:17.427Z,33.50
2019-03-24T04:55:26.798Z,31.87
2019-03-24T04:59:36.418Z,30.57
2019-03-24T05:03:45.811Z,30.10
2019-03-24T05:07:55.192Z,31.00
2019-03-24T05:12:04.862Z,32.50
2019-03-24T05:16:14.533Z,30.60
2019-03-24T05:20:23.929Z,29.43
2019-03-24T05:24:33.217Z,30.13
2019-03-24T05:28:42.770Z,29.03
2019-03-24T05:32:52.081Z,30.40
2019-03-24T05:37:01.389Z,30.83
2019-03-24T05:41:11.956Z,31.50
2019-03-24T05:45:21.371Z,30.20
2019-03-24T05:49:30.673Z,29.53
2019-03-24T05:53:40.067Z,32.00
2019-03-24T05:57:49.744Z,29.67
2019-03-24T06:01:59.078Z,31.40
2019-03-24T06:06:08.453Z,32.90
2019-03-24T06:10:17.759Z,31.47
2019-03-24T06:14:27.429Z,33.83
2019-03-24T06:18:37.021Z,33.13
2019-03-24T06:22:46.582Z,33.27
2019-03-24T06:26:56.438Z,32.30
2019-03-24T06:31:05.817Z,46.67
2019-03-24T06:35:15.286Z,36.70
2019-03-24T06:39:24.597Z,50.20
2019-03-24T06:43:33.910Z,60.63
2019-03-24T06:47:43.233Z,61.00
2019-03-24T06:51:52.527Z,59.90
2019-03-24T06:56:01.833Z,54.80
2019-03-24T07:00:11.749Z,39.73
2019-03-24T07:04:21.344Z,36.80
2019-03-24T07:08:30.637Z,56.97
2019-03-24T07:12:40.299Z,33.30
2019-03-24T07:16:50.209Z,34.90
2019-03-24T07:21:00.185Z,32.40
2019-03-24T07:25:10.090Z,34.67
2019-03-24T07:29:19.389Z,36.80
2019-03-24T07:33:28.715Z,33.47
2019-03-24T07:37:38.175Z,36.40
2019-03-24T07:41:47.483Z,49.80
2019-03-24T07:45:57.054Z,34.47
2019-03-24T07:50:07.654Z,30.83
2019-03-24T07:54:16.958Z,32.70
2019-03-24T07:58:26.326Z,33.00
2019-03-24T08:02:35.966Z,32.23
2019-03-24T08:06:45.570Z,33.70
2019-03-24T08:10:54.869Z,31.77
2019-03-24T08:15:04.372Z,30.63
2019-03-24T08:19:13.683Z,33.20
2019-03-24T08:23:23.304Z,31.27
2019-03-24T08:27:32.673Z,32.50
2019-03-24T08:31:42.049Z,29.00
2019-03-24T08:35:52.262Z,28.30
2019-03-24T08:40:01.671Z,27.70
2019-03-24T08:44:11.038Z,26.13
2019-03-24T08:48:20.597Z,28.77
2019-03-24T08:52:29.893Z,38.57
2019-03-24T08:56:39.506Z,51.90
2019-03-24T09:00:48.845Z,26.93
2019-03-24T09:04:58.600Z,47.63
2019-03-24T09:09:08.754Z,26.50
2019-03-24T09:13:18.066Z,101.20
2019-03-24T09:17:27.653Z,31.23
2019-03-24T09:21:36.942Z,23.77
2019-03-24T09:25:46.242Z,22.50
2019-03-24T09:29:55.617Z,22.33
2019-03-24T09:34:05.098Z,23.47
2019-03-24T09:38:14.443Z,24.87
2019-03-24T09:42:23.750Z,25.03
2019-03-24T09:46:33.065Z,25.40
2019-03-24T09:50:42.361Z,25.13
2019-03-24T09:54:52.334Z,26.10
2019-03-24T09:59:01.646Z,25.60
2019-03-24T10:03:11.258Z,23.87
2019-03-24T10:07:20.598Z,23.83
2019-03-24T10:11:30.037Z,31.77
2019-03-24T10:15:39.354Z,38.57
2019-03-24T10:19:48.665Z,27.30
2019-03-24T10:23:58.391Z,22.47
2019-03-24T10:28:08.042Z,20.90
2019-03-24T10:32:17.344Z,21.77
2019-03-24T10:36:26.929Z,23.30
2019-03-24T10:40:36.610Z,18.03
2019-03-24T10:44:46.174Z,25.10
2019-03-24T10:48:55.482Z,17.97
2019-03-24T10:53:04.794Z,15.83
2019-03-24T10:57:14.097Z,15.10
2019-03-24T11:01:23.409Z,15.50
2019-03-24T11:05:32.722Z,15.70
2019-03-24T11:09:42.032Z,13.93
2019-03-24T11:13:51.702Z,14.43
2019-03-24T11:18:01.303Z,14.40
2019-03-24T11:22:10.613Z,12.63
2019-03-24T11:26:19.925Z,14.57
2019-03-24T11:30:29.237Z,14.90
2019-03-24T11:34:38.894Z,14.83
2019-03-24T11:38:48.201Z,15.90
2019-03-24T11:42:57.501Z,15.20
2019-03-24T11:47:06.899Z,15.40
2019-03-24T11:51:16.225Z,16.47
2019-03-24T11:55:25.607Z,15.87
2019-03-24T11:59:34.910Z,18.10
2019-03-24T12:03:45.316Z,20.00
2019-03-24T12:07:54.633Z,16.20
2019-03-24T12:12:04.035Z,18.10
2019-03-24T12:16:13.342Z,20.90
2019-03-24T12:20:22.898Z,22.80
2019-03-24T12:24:32.202Z,21.67
2019-03-24T12:28:41.828Z,20.60
2019-03-24T12:32:51.134Z,21.27
2019-03-24T12:37:00.453Z,23.20
2019-03-24T12:41:10.145Z,20.70
2019-03-24T12:45:19.614Z,19.90
2019-03-24T12:49:29.299Z,20.47
2019-03-24T12:53:38.627Z,20.83
2019-03-24T12:57:47.946Z,21.23
2019-03-24T13:01:57.565Z,19.73
2019-03-24T13:06:06.953Z,16.73
2019-03-24T13:10:16.385Z,17.70
2019-03-24T13:14:25.673Z,16.17
2019-03-24T13:18:35.013Z,15.67
2019-03-24T13:22:44.348Z,15.23
2019-03-24T13:26:53.747Z,15.10
2019-03-24T13:31:03.328Z,13.97
2019-03-24T13:35:12.786Z,14.37
2019-03-24T13:39:22.424Z,14.00
2019-03-24T13:43:32.190Z,39.20
2019-03-24T13:47:41.498Z,13.90
2019-03-24T13:51:50.808Z,15.33
2019-03-24T13:56:00.100Z,11.07
2019-03-24T14:00:10.649Z,11.70
2019-03-24T14:04:20.311Z,10.30
2019-03-24T14:08:29.634Z,11.47
2019-03-24T14:12:39.030Z,10.93
2019-03-24T14:16:48.334Z,16.27
2019-03-24T14:20:58.291Z,12.53
2019-03-24T14:25:08.081Z,19.00
2019-03-24T14:29:17.453Z,13.37
2019-03-24T14:33:26.854Z,11.10
2019-03-24T14:37:36.226Z,10.37
2019-03-24T14:41:45.642Z,9.80
2019-03-24T14:45:54.945Z,10.23
2019-03-24T14:50:05.150Z,24.67
2019-03-24T14:54:14.453Z,9.30
2019-03-24T14:58:23.761Z,10.13
2019-03-24T15:02:33.066Z,10.13
2019-03-24T15:06:42.445Z,9.20
2019-03-24T15:10:52.061Z,10.17
2019-03-24T15:15:01.364Z,9.23
2019-03-24T15:19:10.669Z,9.70
2019-03-24T15:23:19.966Z,8.80
2019-03-24T15:27:29.663Z,9.50
2019-03-24T15:31:39.189Z,9.43
2019-03-24T15:35:49.298Z,9.70
2019-03-24T15:39:58.624Z,10.03
2019-03-24T15:44:08.026Z,7.90
2019-03-24T15:48:17.694Z,9.50
2019-03-24T15:52:27.003Z,8.63
2019-03-24T15:56:36.301Z,8.10
2019-03-24T16:00:47.388Z,7.27
2019-03-24T16:04:56.758Z,8.97
2019-03-24T16:09:07.785Z,7.60
2019-03-24T16:13:18.269Z,8.27
2019-03-24T16:17:27.589Z,7.87
2019-03-24T16:21:36.896Z,11.67
2019-03-24T16:25:46.519Z,7.77
2019-03-24T16:29:56.059Z,7.00
2019-03-24T16:34:05.543Z,7.43
2019-03-24T16:38:15.025Z,6.17
2019-03-24T16:42:24.330Z,6.27
2019-03-24T16:46:33.721Z,6.83
2019-03-24T16:50:43.117Z,6.07
2019-03-24T16:54:52.415Z,4.70
2019-03-24T16:59:02.387Z,6.37
2019-03-24T17:03:11.692Z,6.10
2019-03-24T17:07:20.996Z,5.13
2019-03-24T17:11:30.291Z,5.00
2019-03-24T17:15:40.070Z,5.30
2019-03-24T17:19:49.450Z,4.30
2019-03-24T17:23:58.754Z,5.00
2019-03-24T17:28:08.133Z,4.90
2019-03-24T17:32:18.167Z,5.30
2019-03-24T17:36:27.824Z,4.70
2019-03-24T17:40:39.000Z,4.23
2019-03-24T17:44:48.237Z,3.97
2019-03-24T17:48:57.691Z,4.90
2019-03-24T17:53:07.094Z,11.37
2019-03-24T17:57:16.481Z,12.80
2019-03-24T18:01:26.016Z,9.37
2019-03-24T18:05:35.327Z,7.37
2019-03-24T18:09:44.930Z,8.13
2019-03-24T18:13:54.886Z,7.60
2019-03-24T18:18:04.602Z,6.87
2019-03-24T18:22:13.899Z,7.20
2019-03-24T18:26:25.903Z,11.00
2019-03-24T18:30:34.938Z,17.80
2019-03-24T18:34:44.247Z,27.53
2019-03-24T18:38:53.547Z,21.73
2019-03-24T18:43:03.253Z,58.10
2019-03-24T18:47:12.558Z,39.33
2019-03-24T18:51:21.857Z,31.17
2019-03-24T18:55:31.173Z,29.70
2019-03-24T18:59:40.757Z,9.00
2019-03-24T19:03:50.066Z,11.03
2019-03-24T19:07:59.366Z,14.00
2019-03-24T19:12:08.674Z,15.93
2019-03-24T19:16:18.341Z,17.77
2019-03-24T19:20:27.644Z,19.73
2019-03-24T19:24:37.029Z,9.70
2019-03-24T19:28:46.330Z,9.20
2019-03-24T19:32:55.633Z,12.00
2019-03-24T19:37:05.193Z,9.90
2019-03-24T19:41:14.486Z,9.23
2019-03-24T19:45:23.930Z,12.17
2019-03-24T19:49:33.326Z,8.87
2019-03-24T19:53:42.612Z,6.50
2019-03-24T19:57:52.292Z,5.70
2019-03-24T20:02:01.841Z,4.87
2019-03-24T20:06:11.292Z,5.17
2019-03-24T20:10:20.609Z,5.70
2019-03-24T20:14:29.914Z,10.47
2019-03-24T20:18:39.530Z,9.07
2019-03-24T20:22:56.485Z,8.40
2019-03-24T20:26:59.871Z,4.90
2019-03-24T20:31:09.179Z,5.30
2019-03-24T20:35:18.850Z,4.50
2019-03-24T20:39:28.499Z,4.50
2019-03-24T20:43:38.270Z,5.73
2019-03-24T20:47:47.905Z,4.73
2019-03-24T20:51:57.455Z,11.00
2019-03-24T20:56:07.105Z,8.30
2019-03-24T21:00:19.949Z,7.40
2019-03-24T21:04:29.263Z,6.40
2019-03-24T21:08:38.835Z,10.00
2019-03-24T21:12:48.465Z,6.83
2019-03-24T21:16:57.950Z,6.50
2019-03-24T21:21:07.250Z,6.60
2019-03-24T21:25:16.557Z,11.03
2019-03-24T21:29:25.938Z,7.20
2019-03-24T21:33:35.258Z,7.20
2019-03-24T21:37:44.642Z,7.73
2019-03-24T21:41:53.954Z,6.93
2019-03-24T21:46:03.395Z,8.00
2019-03-24T21:50:14.434Z,7.80
2019-03-24T21:54:23.746Z,8.77
2019-03-24T21:58:33.062Z,8.97
2019-03-24T22:02:42.367Z,7.43
2019-03-24T22:06:51.990Z,7.10
2019-03-24T22:11:01.293Z,6.80
2019-03-24T22:15:11.094Z,5.67
2019-03-24T22:19:20.390Z,5.60
2019-03-24T22:23:29.689Z,4.93
2019-03-24T22:27:38.987Z,5.47
2019-03-24T22:31:48.287Z,5.00
2019-03-24T22:35:57.590Z,5.13
2019-03-24T22:40:08.218Z,5.10
2019-03-24T22:44:17.598Z,5.70
2019-03-24T22:48:26.902Z,5.13
2019-03-24T22:52:36.338Z,5.03
2019-03-24T22:56:45.761Z,5.07
2019-03-24T23:00:55.810Z,5.47
2019-03-24T23:05:05.454Z,5.00
2019-03-24T23:09:14.838Z,21.93
2019-03-24T23:13:24.481Z,5.50
2019-03-24T23:17:33.858Z,6.80
2019-03-24T23:21:43.180Z,5.23
2019-03-24T23:25:52.633Z,4.40
2019-03-24T23:30:01.930Z,7.43
2019-03-24T23:34:11.233Z,10.07
2019-03-24T23:38:20.855Z,7.57
2019-03-24T23:42:30.397Z,10.73
2019-03-24T23:46:40.050Z,10.07
2019-03-24T23:50:49.811Z,12.17
2019-03-24T23:54:59.109Z,12.40
2019-03-24T23:59:08.713Z,6.30
